Skip Navigation Links Skip Navigation Links

Current Weather

Raleigh-Durham Intl, Raleigh, N.C.

For information only: do not use for flight planning or navigation.
Latest weather
Observation time Sunday, May 31, 2020 8:51 AM EDT
Local time Sunday, May 31, 2020 9:14 AM EDT
Flight conditions Visual Meteorological Conditions
Winds
Wind direction East-Northeast (60°)
Wind speed 13 mph
Visibility 10 mi.
Sky condition
Ceiling 8,500 ft. broken clouds
Cloud layer scattered clouds 4,000 ft.
Cloud layer broken clouds 8,500 ft.
Cloud layer broken clouds 25,000 ft.
Temperature 67°F
Dewpoint 56°F
Altimeter 30.13 in.Hg
Derived measurements
Relative humidity 68%
Density altitude 926 ft.
Sea-level pressure 30.11 in.Hg
Remarks
System requires maintenance.
Automated weather observing station with precipitation discriminator.
METAR KRDU 311251Z 06011KT 10SM SCT040 BKN085 BKN250 19/13 A3013 RMK AO2 SLP198 T01940133 $

Settings

Location code

InnerDrive.Weather 4.0.6770.0 Release CLR 4.0.30319.42000
Copyright ©2018 Inner Drive Technology. All rights reserved. Portions Copyright ©1986-2018 David Braverman.

Find weather

Site navigation


Skip Navigation Links

Place info

Page info

PayPal - The safer, easier way to pay online!

Return home.

Copyright ©2020 Inner Drive Technology. Purveyors of fine, hand-crafted computer software. Page printed 2020-05-31T13:14:58 UTC.